Time;durP1;ratioP1;P1;durP2;ratioP2;P2;SDS_P1;SDS_P2;PMS_P1;PMS_P2;Temp;Humidity;BMP_temperature;BMP_pressure;BME280_temperature;BME280_humidity;BME280_pressure;Samples;Min_cycle;Max_cycle;Signal;HPM_P1;HPM_P2
2022/09/29 00:01:52;;;;;;;247.25;24.08;;;6.50;99.90;;;;;;4929038;29;20046;-71
2022/09/29 00:04:18;;;;;;;41.25;8.00;;;6.60;99.90;;;;;;4904174;28;20264;-71
2022/09/29 00:06:44;;;;;;;5.88;5.15;;;6.60;99.90;;;;;;4927945;29;20109;-71
2022/09/29 00:09:10;;;;;;;7.82;7.05;;;6.50;99.90;;;;;;4905373;29;20047;-71
2022/09/29 00:11:36;;;;;;;8.05;7.35;;;6.50;99.90;;;;;;4929619;29;20055;-71
2022/09/29 00:14:02;;;;;;;6.90;6.30;;;6.40;99.90;;;;;;4926881;28;20109;-71
2022/09/29 00:16:28;;;;;;;8.90;8.10;;;6.50;99.90;;;;;;4924874;29;20685;-71
2022/09/29 00:18:56;;;;;;;7.30;6.60;;;6.50;99.90;;;;;;4927051;28;20513;-71
2022/09/29 00:21:22;;;;;;;6.40;5.80;;;6.50;99.90;;;;;;4925213;29;20130;-71
2022/09/29 00:23:49;;;;;;;14.05;5.03;;;6.50;99.90;;;;;;4942458;28;20077;-71
2022/09/29 00:26:23;;;;;;;20.48;5.95;;;6.50;99.90;;;;;;4952057;28;20074;-71
2022/09/29 00:28:57;;;;;;;11.02;4.93;;;6.40;99.90;;;;;;4928590;29;20506;-71
2022/09/29 00:31:29;;;;;;;9.63;6.63;;;6.30;99.90;;;;;;4927933;28;20414;-71
2022/09/29 00:33:55;;;;;;;7.15;6.55;;;6.30;99.90;;;;;;4930729;29;20051;-71
2022/09/29 00:36:22;;;;;;;9.45;8.48;;;6.20;99.90;;;;;;4936778;29;20482;-71
2022/09/29 00:38:49;;;;;;;8.65;7.95;;;6.20;99.90;;;;;;4930617;29;20045;-71
2022/09/29 00:41:23;;;;;;;9.52;8.55;;;6.20;99.90;;;;;;4925147;28;20075;-71
2022/09/29 00:43:56;;;;;;;11.70;10.60;;;6.20;99.90;;;;;;4905708;29;20363;-71
2022/09/29 00:46:22;;;;;;;11.07;9.98;;;6.30;99.90;;;;;;4919819;29;20046;-71
2022/09/29 00:48:48;;;;;;;11.70;10.30;;;6.30;99.90;;;;;;4945324;28;20117;-71
2022/09/29 00:51:16;;;;;;;24.50;14.75;;;6.30;99.90;;;;;;4911510;28;20575;-71
2022/09/29 00:53:42;;;;;;;12.13;11.07;;;6.30;99.90;;;;;;4926434;29;20102;-71
2022/09/29 00:56:13;;;;;;;14.68;10.20;;;6.30;99.90;;;;;;4925953;28;20105;-71
2022/09/29 00:58:53;;;;;;;10.10;9.27;;;6.30;99.90;;;;;;4905071;29;20789;-71
2022/09/29 01:01:20;;;;;;;11.23;10.23;;;6.30;99.90;;;;;;4923843;29;20052;-71
2022/09/29 01:03:48;;;;;;;9.25;8.35;;;6.20;99.90;;;;;;4937505;29;20043;-72
2022/09/29 01:06:26;;;;;;;9.30;8.55;;;6.20;99.90;;;;;;4912988;29;20137;-72
2022/09/29 01:09:01;;;;;;;11.35;10.23;;;6.20;99.90;;;;;;4923542;29;20093;-72
2022/09/29 01:11:28;;;;;;;12.48;11.38;;;6.20;99.90;;;;;;4925746;29;20047;-72
2022/09/29 01:14:02;;;;;;;10.57;9.68;;;6.20;99.90;;;;;;4904815;29;20047;-72
2022/09/29 01:16:29;;;;;;;11.55;10.55;;;6.20;99.90;;;;;;4925906;29;20047;-72
2022/09/29 01:18:57;;;;;;;20.80;18.70;;;6.30;99.90;;;;;;4893182;28;21109;-72
2022/09/29 01:21:49;;;;;;;20.80;18.58;;;6.30;99.90;;;;;;4904085;29;20051;-72
2022/09/29 01:24:45;;;;;;;15.80;14.30;;;6.30;99.90;;;;;;4904575;29;20059;-72
2022/09/29 01:27:35;;;;;;;12.80;11.55;;;6.30;99.90;;;;;;4916811;29;21188;-72
2022/09/29 01:30:27;;;;;;;10.15;9.25;;;6.30;99.90;;;;;;4928862;29;20086;-72
2022/09/29 01:32:59;;;;;;;11.40;10.40;;;6.30;99.90;;;;;;4908211;29;20125;-72
2022/09/29 01:35:59;;;;;;;11.55;10.55;;;6.20;99.90;;;;;;4923045;29;20506;-72
2022/09/29 01:38:57;;;;;;;11.70;9.43;;;6.20;99.90;;;;;;4941803;28;20098;-72
2022/09/29 01:41:40;;;;;;;11.25;10.18;;;6.20;99.90;;;;;;4919595;29;20138;-72
2022/09/29 01:44:20;;;;;;;11.32;10.20;;;6.10;99.90;;;;;;4929053;28;20051;-72
2022/09/29 01:47:07;;;;;;;15.40;11.90;;;6.10;99.90;;;;;;4925960;29;20676;-72
2022/09/29 01:49:39;;;;;;;10.60;9.48;;;6.10;99.90;;;;;;4919722;29;20257;-72
2022/09/29 01:52:18;;;;;;;7.70;6.97;;;6.00;99.90;;;;;;4930730;29;20533;-72
2022/09/29 01:54:59;;;;;;;8.90;8.10;;;6.00;99.90;;;;;;4918429;29;20044;-72
2022/09/29 01:57:49;;;;;;;9.15;8.35;;;5.90;99.90;;;;;;4910107;28;20114;-72
2022/09/29 02:00:16;;;;;;;;;;;6.00;99.90;;;;;;4933274;28;20047;-72
2022/09/29 02:02:48;;;;;;;35.50;15.35;;;5.90;99.90;;;;;;4919154;29;20421;-72
2022/09/29 02:05:45;;;;;;;6.93;6.32;;;5.90;99.90;;;;;;4910725;29;20115;-72
2022/09/29 02:08:19;;;;;;;11.00;10.00;;;5.80;99.90;;;;;;4932008;29;20055;-72
2022/09/29 02:10:55;;;;;;;26.60;9.20;;;5.80;99.90;;;;;;4928291;28;20051;-72
2022/09/29 02:13:23;;;;;;;18.90;10.80;;;5.80;99.90;;;;;;4931465;29;20494;-72
2022/09/29 02:15:51;;;;;;;15.65;14.07;;;5.70;99.90;;;;;;4925542;29;20106;-72
2022/09/29 02:18:28;;;;;;;11.18;10.07;;;5.70;99.90;;;;;;4936604;28;20534;-72
2022/09/29 02:20:54;;;;;;;13.85;12.55;;;5.70;99.90;;;;;;4923613;29;20051;-72
2022/09/29 02:23:20;;;;;;;18.60;16.90;;;5.70;99.90;;;;;;4905035;29;20250;-72
2022/09/29 02:25:48;;;;;;;15.02;13.55;;;5.70;99.90;;;;;;4922529;29;20078;-70
2022/09/29 02:28:15;;;;;;;17.25;15.45;;;5.70;99.90;;;;;;4945988;28;20059;-70
2022/09/29 02:30:41;;;;;;;16.75;15.15;;;5.70;99.90;;;;;;4934399;29;20043;-70
2022/09/29 02:33:25;;;;;;;16.05;14.55;;;5.70;99.90;;;;;;4925887;29;20047;-70
2022/09/29 02:36:20;;;;;;;17.05;15.45;;;5.70;99.90;;;;;;4933709;28;20499;-70
2022/09/29 02:39:14;;;;;;;14.43;12.93;;;5.70;99.90;;;;;;4920571;29;20071;-70
2022/09/29 02:42:01;;;;;;;17.02;15.25;;;5.70;99.90;;;;;;4905656;29;20083;-70
2022/09/29 02:44:45;;;;;;;15.30;13.75;;;5.70;99.90;;;;;;4939022;28;20047;-70
2022/09/29 02:47:19;;;;;;;20.00;18.08;;;5.60;99.90;;;;;;4932576;28;20054;-70
2022/09/29 02:49:54;;;;;;;14.18;13.00;;;5.60;99.90;;;;;;4923611;29;20050;-70
2022/09/29 02:52:52;;;;;;;14.75;13.45;;;5.50;99.90;;;;;;4928350;28;20078;-70
2022/09/29 02:55:36;;;;;;;16.65;15.23;;;5.60;99.90;;;;;;4904828;28;20125;-71
2022/09/29 02:58:12;;;;;;;14.38;13.10;;;5.60;99.90;;;;;;4937607;28;20208;-70
2022/09/29 03:00:38;;;;;;;16.65;15.25;;;5.60;99.90;;;;;;4928130;29;20048;-71
2022/09/29 03:03:04;;;;;;;15.30;13.70;;;5.60;99.90;;;;;;4943061;28;20057;-71
2022/09/29 03:05:30;;;;;;;20.33;15.23;;;5.60;99.90;;;;;;4917870;28;20410;-72
2022/09/29 03:07:56;;;;;;;20.17;17.10;;;5.60;99.90;;;;;;4931797;29;20568;-71
2022/09/29 03:10:21;;;;;;;34.08;13.38;;;5.60;99.90;;;;;;4929495;29;20054;-71
2022/09/29 03:12:47;;;;;;;14.57;13.18;;;5.60;99.90;;;;;;4918172;29;20050;-71
2022/09/29 03:15:13;;;;;;;18.38;16.42;;;5.50;99.90;;;;;;4928783;29;20107;-71
2022/09/29 03:17:39;;;;;;;31.27;17.00;;;5.50;99.90;;;;;;4921241;29;20577;-71
2022/09/29 03:20:07;;;;;;;66.45;19.05;;;5.50;99.90;;;;;;4921868;29;20052;-72
2022/09/29 03:22:32;;;;;;;15.15;13.75;;;5.50;99.90;;;;;;4913002;29;20055;-71
2022/09/29 03:25:01;;;;;;;20.90;15.45;;;5.50;99.90;;;;;;4942012;28;20573;-71
2022/09/29 03:27:26;;;;;;;13.98;12.38;;;5.50;99.90;;;;;;4919744;29;20065;-71
2022/09/29 03:29:52;;;;;;;25.10;17.27;;;5.50;99.90;;;;;;4925250;29;20582;-71
2022/09/29 03:32:18;;;;;;;14.77;13.35;;;5.40;99.90;;;;;;4925802;29;20885;-71
2022/09/29 03:34:44;;;;;;;23.55;14.93;;;5.50;99.90;;;;;;4909344;29;20047;-71
2022/09/29 03:37:10;;;;;;;30.45;16.58;;;5.50;99.90;;;;;;4927579;29;20081;-71
2022/09/29 03:39:36;;;;;;;15.20;13.90;;;5.40;99.90;;;;;;4928128;29;20043;-71
2022/09/29 03:42:01;;;;;;;17.77;12.30;;;5.40;99.90;;;;;;4929362;28;20511;-71
2022/09/29 03:44:27;;;;;;;14.00;12.63;;;5.40;99.90;;;;;;4900184;29;20071;-71
2022/09/29 03:46:53;;;;;;;14.85;13.05;;;5.40;99.90;;;;;;4899018;28;20046;-71
2022/09/29 03:49:19;;;;;;;17.85;12.32;;;5.40;99.90;;;;;;4917014;29;20043;-71
2022/09/29 03:51:44;;;;;;;43.70;16.67;;;5.40;99.90;;;;;;4929113;28;20102;-71
2022/09/29 03:54:11;;;;;;;55.67;20.60;;;5.40;99.90;;;;;;4930429;29;20047;-71
2022/09/29 03:56:37;;;;;;;55.83;16.25;;;5.30;99.90;;;;;;4930856;29;20867;-73
2022/09/29 03:59:04;;;;;;;63.15;19.02;;;5.30;99.90;;;;;;4942218;28;20048;-71
2022/09/29 04:01:31;;;;;;;109.70;21.88;;;5.30;99.90;;;;;;4940984;28;20043;-71
2022/09/29 04:03:57;;;;;;;159.85;26.40;;;5.30;99.90;;;;;;4945165;28;20108;-71
2022/09/29 04:06:23;;;;;;;74.68;18.55;;;5.30;99.90;;;;;;4920174;29;20047;-71
2022/09/29 04:08:49;;;;;;;31.25;16.50;;;5.20;99.90;;;;;;4924103;29;20226;-71
2022/09/29 04:11:15;;;;;;;74.43;19.08;;;5.10;99.90;;;;;;4906476;29;20051;-73
2022/09/29 04:13:41;;;;;;;50.83;18.08;;;5.20;99.90;;;;;;4930615;29;20047;-71
2022/09/29 04:16:07;;;;;;;55.58;17.88;;;5.20;99.90;;;;;;4922355;29;20047;-71
2022/09/29 04:18:33;;;;;;;42.25;17.17;;;5.30;99.90;;;;;;4946408;28;20047;-71
2022/09/29 04:21:07;;;;;;;74.57;26.30;;;5.20;99.90;;;;;;4927248;29;20074;-71
2022/09/29 04:23:32;;;;;;;42.63;21.55;;;5.20;99.90;;;;;;4935110;28;20039;-71
2022/09/29 04:26:01;;;;;;;35.50;17.75;;;5.10;99.90;;;;;;4938334;28;20564;-70
2022/09/29 04:28:29;;;;;;;38.70;20.52;;;5.10;99.90;;;;;;4926729;29;20055;-70
2022/09/29 04:30:55;;;;;;;19.73;15.38;;;5.10;99.90;;;;;;4913305;28;20556;-70
2022/09/29 04:33:21;;;;;;;27.25;18.75;;;5.10;99.90;;;;;;4928336;29;20039;-70
2022/09/29 04:35:47;;;;;;;30.83;19.90;;;5.10;99.90;;;;;;4918374;28;20048;-69
2022/09/29 04:38:12;;;;;;;19.85;15.75;;;5.00;99.90;;;;;;4927864;29;20043;-70
2022/09/29 04:40:38;;;;;;;17.05;15.27;;;5.00;99.90;;;;;;4916413;29;20176;-71
2022/09/29 04:43:04;;;;;;;17.63;15.93;;;5.00;99.90;;;;;;4915043;29;20107;-70
2022/09/29 04:45:31;;;;;;;30.45;20.13;;;5.00;99.90;;;;;;4906252;28;20055;-71
2022/09/29 04:47:56;;;;;;;24.13;16.95;;;5.00;99.90;;;;;;4923060;29;20044;-71
2022/09/29 04:50:23;;;;;;;19.08;16.42;;;5.00;99.90;;;;;;4911412;28;20051;-71
2022/09/29 04:52:49;;;;;;;24.20;16.00;;;5.00;99.90;;;;;;4937260;28;20142;-71
2022/09/29 04:55:15;;;;;;;32.92;20.60;;;5.00;99.90;;;;;;4913958;29;20714;-71
2022/09/29 04:57:43;;;;;;;32.30;15.85;;;5.00;99.90;;;;;;4919883;29;20084;-71
2022/09/29 05:00:09;;;;;;;20.83;15.98;;;5.00;99.90;;;;;;4908868;29;20070;-71
2022/09/29 05:02:35;;;;;;;41.63;19.30;;;4.90;99.90;;;;;;4933654;29;20051;-71
2022/09/29 05:05:01;;;;;;;34.17;23.13;;;4.90;99.90;;;;;;4913086;29;20118;-71
2022/09/29 05:07:27;;;;;;;37.63;17.48;;;4.90;99.90;;;;;;4929262;29;20169;-71
2022/09/29 05:09:53;;;;;;;24.73;16.13;;;5.00;99.90;;;;;;4897502;29;20158;-71
2022/09/29 05:12:20;;;;;;;31.05;17.35;;;4.90;99.90;;;;;;4908726;28;20054;-71
2022/09/29 05:14:46;;;;;;;21.80;15.95;;;4.90;99.90;;;;;;4926688;29;20542;-71
2022/09/29 05:17:12;;;;;;;42.38;20.15;;;4.90;99.90;;;;;;4889086;29;20789;-71
2022/09/29 05:19:38;;;;;;;21.13;17.55;;;4.90;99.90;;;;;;4912608;29;20498;-71
2022/09/29 05:22:05;;;;;;;19.23;17.33;;;4.80;99.90;;;;;;4919757;28;20048;-71
2022/09/29 05:24:31;;;;;;;25.55;17.23;;;4.80;99.90;;;;;;4933838;29;20062;-72
2022/09/29 05:26:56;;;;;;;17.90;14.88;;;4.80;99.90;;;;;;4925601;28;20418;-73
2022/09/29 05:29:22;;;;;;;23.35;17.42;;;4.80;99.90;;;;;;4927612;29;20569;-72
2022/09/29 05:31:49;;;;;;;15.85;14.52;;;4.80;99.90;;;;;;4923983;28;20652;-72
2022/09/29 05:34:17;;;;;;;16.52;14.80;;;4.80;99.90;;;;;;4906905;29;20066;-72
2022/09/29 05:36:43;;;;;;;14.40;13.00;;;4.80;99.90;;;;;;4927992;29;20043;-74
2022/09/29 05:39:10;;;;;;;17.88;16.17;;;4.80;99.90;;;;;;4936423;29;20529;-74
2022/09/29 05:41:36;;;;;;;18.25;16.55;;;4.80;99.90;;;;;;4921736;29;20126;-74
2022/09/29 05:44:02;;;;;;;15.73;14.30;;;4.80;99.90;;;;;;4921005;29;20055;-73
2022/09/29 05:46:27;;;;;;;14.73;13.52;;;4.70;99.90;;;;;;4918697;29;20441;-73
2022/09/29 05:48:53;;;;;;;13.60;12.30;;;4.70;99.90;;;;;;4903443;29;20090;-73
2022/09/29 05:51:21;;;;;;;19.70;18.05;;;4.70;99.90;;;;;;4926693;29;20055;-73
2022/09/29 05:53:48;;;;;;;15.85;14.50;;;4.70;99.90;;;;;;4924900;29;20043;-73
2022/09/29 05:56:18;;;;;;;15.50;14.20;;;4.70;99.90;;;;;;4928115;29;20106;-73
2022/09/29 05:58:44;;;;;;;16.05;14.73;;;4.70;99.90;;;;;;4913355;29;20051;-73
2022/09/29 06:01:13;;;;;;;14.80;13.50;;;4.70;99.90;;;;;;4924048;29;20047;-73
2022/09/29 06:03:39;;;;;;;17.92;16.23;;;4.70;99.90;;;;;;4939531;28;20153;-73
2022/09/29 06:06:11;;;;;;;20.35;18.30;;;4.70;99.90;;;;;;4930435;29;20075;-73
2022/09/29 06:08:37;;;;;;;46.15;30.20;;;4.80;99.90;;;;;;4932118;29;20054;-73
2022/09/29 06:11:11;;;;;;;19.92;18.23;;;4.70;99.90;;;;;;4927783;28;20097;-73
2022/09/29 06:13:41;;;;;;;26.33;23.80;;;4.80;99.90;;;;;;4918673;29;20486;-73
2022/09/29 06:16:08;;;;;;;22.42;20.00;;;4.80;99.90;;;;;;4942410;28;20047;-74
2022/09/29 06:18:34;;;;;;;19.90;18.00;;;4.80;99.90;;;;;;4923432;29;20054;-73
2022/09/29 06:21:18;;;;;;;36.22;30.73;;;4.80;99.90;;;;;;4931250;28;20122;-73
2022/09/29 06:23:44;;;;;;;37.97;28.98;;;4.90;99.90;;;;;;4928155;29;20562;-73
2022/09/29 06:26:12;;;;;;;40.22;27.17;;;4.90;99.90;;;;;;4930947;29;20055;-73
2022/09/29 06:28:38;;;;;;;51.72;30.40;;;5.00;99.90;;;;;;4926001;29;20574;-73
2022/09/29 06:31:11;;;;;;;26.20;22.88;;;5.00;99.90;;;;;;4894172;28;20035;-70
2022/09/29 06:33:37;;;;;;;40.25;26.75;;;5.10;99.90;;;;;;4917867;29;20046;-70
2022/09/29 06:38:55;;;;;;;46.80;37.45;;;5.10;99.90;;;;;;4928860;29;20118;-70
2022/09/29 06:41:20;;;;;;;42.17;35.35;;;5.20;99.90;;;;;;4930989;29;20039;-70
2022/09/29 06:43:46;;;;;;;26.95;24.65;;;5.20;99.90;;;;;;4927842;29;20127;-70
2022/09/29 06:46:12;;;;;;;26.58;24.17;;;5.30;99.90;;;;;;4932927;29;20612;-70
2022/09/29 06:48:38;;;;;;;28.48;25.92;;;5.40;99.90;;;;;;4928192;29;20082;-70
2022/09/29 06:51:08;;;;;;;27.05;24.70;;;5.40;99.90;;;;;;4895773;29;20134;-70
2022/09/29 06:53:34;;;;;;;25.23;23.02;;;5.50;99.90;;;;;;4916501;29;20690;-70
2022/09/29 06:56:00;;;;;;;28.70;26.10;;;5.50;99.90;;;;;;4930550;29;20082;-70
2022/09/29 06:58:27;;;;;;;29.75;26.90;;;5.60;99.90;;;;;;4928721;29;20048;-70
2022/09/29 07:00:52;;;;;;;28.38;25.88;;;5.70;99.90;;;;;;4918268;29;20042;-70
2022/09/29 07:03:18;;;;;;;28.48;25.88;;;5.70;99.90;;;;;;4926761;29;20613;-70
2022/09/29 07:05:44;;;;;;;72.72;49.40;;;5.80;99.90;;;;;;4935900;29;20043;-70
2022/09/29 07:08:10;;;;;;;34.00;30.60;;;5.90;99.90;;;;;;4906019;29;20039;-71
2022/09/29 07:10:36;;;;;;;31.25;28.35;;;5.90;99.90;;;;;;4938181;29;20055;-70
2022/09/29 07:13:02;;;;;;;35.80;32.25;;;6.00;99.90;;;;;;4914576;28;20651;-70
2022/09/29 07:15:30;;;;;;;36.47;32.55;;;6.00;99.90;;;;;;4906756;29;20047;-70
2022/09/29 07:18:00;;;;;;;33.78;30.50;;;6.10;99.90;;;;;;4929601;29;20587;-71
2022/09/29 07:20:27;;;;;;;34.03;30.75;;;6.20;99.90;;;;;;4945657;28;20051;-71
2022/09/29 07:22:54;;;;;;;38.13;34.25;;;6.20;99.90;;;;;;4944951;28;20070;-71
2022/09/29 07:25:20;;;;;;;33.58;30.10;;;6.40;99.90;;;;;;4933752;28;20418;-71
2022/09/29 07:27:46;;;;;;;34.50;30.85;;;6.30;99.90;;;;;;4913460;29;20040;-71
2022/09/29 07:30:13;;;;;;;36.70;33.00;;;6.50;99.90;;;;;;4916372;28;20162;-71
2022/09/29 07:32:38;;;;;;;34.58;31.05;;;6.50;99.90;;;;;;4930020;29;20043;-71
2022/09/29 07:35:05;;;;;;;34.58;31.13;;;6.60;99.90;;;;;;4906980;29;20035;-71
2022/09/29 07:37:31;;;;;;;39.33;35.38;;;6.80;99.90;;;;;;4941729;28;20051;-71
2022/09/29 07:39:57;;;;;;;36.22;32.42;;;6.80;99.90;;;;;;4930463;28;20170;-71
2022/09/29 07:42:23;;;;;;;36.95;33.17;;;7.00;99.90;;;;;;4915575;29;20118;-71
2022/09/29 07:44:48;;;;;;;32.50;29.33;;;7.00;99.90;;;;;;4916640;29;20035;-71
2022/09/29 07:47:14;;;;;;;35.22;31.83;;;7.20;99.90;;;;;;4929438;29;20512;-71
2022/09/29 07:49:40;;;;;;;34.10;30.58;;;7.30;99.90;;;;;;4914691;28;20043;-71
2022/09/29 07:52:07;;;;;;;32.72;29.52;;;7.50;99.90;;;;;;4927034;28;20585;-71
2022/09/29 07:54:33;;;;;;;31.75;28.85;;;7.60;99.90;;;;;;4904055;29;20805;-71
2022/09/29 07:57:01;;;;;;;34.90;31.50;;;7.80;99.90;;;;;;4906143;28;20043;-70
2022/09/29 07:59:27;;;;;;;34.15;30.90;;;8.00;99.90;;;;;;4945263;28;20058;-71
2022/09/29 08:01:53;;;;;;;31.60;28.80;;;8.20;99.90;;;;;;4904307;29;20039;-71
2022/09/29 08:04:19;;;;;;;29.45;26.60;;;8.40;99.90;;;;;;4914254;29;20057;-71
2022/09/29 08:06:45;;;;;;;28.52;26.02;;;8.70;99.90;;;;;;4931492;29;20062;-75
2022/09/29 08:09:11;;;;;;;26.83;24.17;;;8.90;99.90;;;;;;4929757;29;20070;-74
2022/09/29 08:11:39;;;;;;;27.10;24.58;;;9.10;99.90;;;;;;4926079;28;20063;-74
2022/09/29 08:14:06;;;;;;;28.35;25.75;;;9.40;99.90;;;;;;4931340;29;20067;-74
2022/09/29 08:16:33;;;;;;;25.83;23.38;;;9.40;99.90;;;;;;4922109;28;20050;-75
2022/09/29 08:19:04;;;;;;;26.02;23.73;;;9.60;99.90;;;;;;4930215;29;20043;-74
2022/09/29 08:21:35;;;;;;;25.17;22.75;;;9.80;99.90;;;;;;4900571;29;20521;-73
2022/09/29 08:24:03;;;;;;;25.30;23.00;;;10.00;99.90;;;;;;4947450;28;20076;-74
2022/09/29 08:26:32;;;;;;;24.55;22.25;;;10.20;99.90;;;;;;4924145;29;20063;-74
2022/09/29 08:28:57;;;;;;;24.98;22.75;;;10.40;99.90;;;;;;4934109;29;20051;-74
2022/09/29 08:31:23;;;;;;;24.90;22.70;;;10.50;99.90;;;;;;4931643;29;20055;-74
2022/09/29 08:33:50;;;;;;;21.67;19.98;;;10.70;99.90;;;;;;4927634;29;20663;-74
2022/09/29 08:36:17;;;;;;;22.52;20.42;;;10.90;99.90;;;;;;4926532;29;20424;-74
2022/09/29 08:38:45;;;;;;;22.33;19.92;;;11.00;99.90;;;;;;4932721;29;20085;-74
2022/09/29 08:41:20;;;;;;;20.77;18.77;;;11.10;99.90;;;;;;4942550;28;20047;-74
2022/09/29 08:43:49;;;;;;;20.92;19.13;;;11.20;99.90;;;;;;4926135;29;20049;-75
2022/09/29 08:46:28;;;;;;;19.85;17.98;;;11.30;99.90;;;;;;4930080;29;20132;-74
2022/09/29 08:48:58;;;;;;;19.17;17.55;;;11.40;99.90;;;;;;4933552;29;20047;-75
2022/09/29 08:51:30;;;;;;;17.00;15.40;;;11.50;99.90;;;;;;4917419;29;20051;-75
2022/09/29 08:53:57;;;;;;;15.45;14.05;;;11.60;99.90;;;;;;4938464;28;20799;-75
2022/09/29 08:56:25;;;;;;;14.63;13.20;;;11.70;99.90;;;;;;4917360;29;20164;-75
2022/09/29 08:58:51;;;;;;;13.73;12.45;;;11.80;99.90;;;;;;4927198;29;20043;-75
2022/09/29 09:01:30;;;;;;;12.65;11.45;;;11.90;99.90;;;;;;4942691;28;20295;-75
2022/09/29 09:04:13;;;;;;;13.38;12.15;;;12.10;99.90;;;;;;4930070;29;20102;-75
2022/09/29 09:06:54;;;;;;;12.75;11.55;;;12.20;99.90;;;;;;4927643;28;20047;-75
2022/09/29 09:09:38;;;;;;;15.70;14.30;;;12.30;99.90;;;;;;4925460;29;20154;-75
2022/09/29 09:12:46;;;;;;;14.02;12.68;;;12.30;99.90;;;;;;4927753;29;20126;-77
2022/09/29 09:15:34;;;;;;;12.50;11.40;;;12.40;99.90;;;;;;4892039;29;20118;-77
2022/09/29 09:18:10;;;;;;;13.15;11.85;;;12.60;99.90;;;;;;4926878;28;20048;-76
2022/09/29 09:21:08;;;;;;;11.02;10.07;;;12.60;99.90;;;;;;4919942;29;20699;-77
2022/09/29 09:23:54;;;;;;;12.85;11.73;;;12.60;99.90;;;;;;4928156;29;20035;-76
2022/09/29 09:26:31;;;;;;;12.15;10.95;;;12.60;99.90;;;;;;4930772;28;20047;-76
2022/09/29 09:29:17;;;;;;;11.07;10.07;;;12.70;99.90;;;;;;4925020;29;20557;-77
2022/09/29 09:31:48;;;;;;;10.07;9.07;;;12.70;99.90;;;;;;4928436;29;20054;-77
2022/09/29 09:34:23;;;;;;;12.40;11.20;;;12.70;99.90;;;;;;4926924;29;20122;-77
2022/09/29 09:37:01;;;;;;;11.75;10.65;;;12.70;99.90;;;;;;4926791;29;20497;-77
2022/09/29 09:39:35;;;;;;;9.23;8.35;;;12.80;99.90;;;;;;4932728;29;20050;-77
2022/09/29 09:42:07;;;;;;;10.50;9.50;;;12.90;99.90;;;;;;4924451;28;20186;-77
2022/09/29 09:44:39;;;;;;;9.82;8.93;;;13.00;99.90;;;;;;4942991;28;20058;-77
2022/09/29 09:47:26;;;;;;;11.30;10.20;;;13.10;99.90;;;;;;4925366;28;20054;-77
2022/09/29 09:50:00;;;;;;;9.93;8.95;;;13.10;99.90;;;;;;4927541;29;20721;-77
2022/09/29 09:52:41;;;;;;;9.73;8.82;;;13.20;99.90;;;;;;4929911;29;20518;-77
2022/09/29 09:55:15;;;;;;;10.93;9.82;;;13.30;99.90;;;;;;4917191;29;20059;-77
2022/09/29 09:58:02;;;;;;;10.70;9.70;;;13.40;99.90;;;;;;4941950;28;20051;-77
2022/09/29 10:00:41;;;;;;;10.88;9.52;;;13.40;99.90;;;;;;4911505;29;20616;-77
2022/09/29 10:03:08;;;;;;;9.95;9.05;;;13.50;99.90;;;;;;4929069;29;20047;-77
2022/09/29 10:05:38;;;;;;;7.90;7.20;;;13.60;99.90;;;;;;4922603;29;20043;-77
2022/09/29 10:08:28;;;;;;;8.27;7.47;;;13.60;99.90;;;;;;4927211;29;20047;-77
2022/09/29 10:10:56;;;;;;;9.95;8.95;;;13.60;99.90;;;;;;4919978;28;20051;-77
2022/09/29 10:13:28;;;;;;;8.45;7.63;;;13.60;99.90;;;;;;4913073;29;20048;-78
2022/09/29 10:16:33;;;;;;;7.43;6.72;;;13.70;99.90;;;;;;4929317;29;20440;-77
2022/09/29 10:19:01;;;;;;;8.60;7.80;;;13.80;99.90;;;;;;4909420;28;20109;-77
2022/09/29 10:21:28;;;;;;;9.27;8.30;;;13.90;99.90;;;;;;4919185;29;20635;-78
2022/09/29 10:23:56;;;;;;;9.75;7.70;;;13.90;99.90;;;;;;4917480;29;20119;-78
2022/09/29 10:26:31;;;;;;;7.32;6.47;;;14.00;99.90;;;;;;4928140;29;20891;-78
2022/09/29 10:28:59;;;;;;;4.93;4.40;;;14.10;99.90;;;;;;4945300;28;20067;-78
2022/09/29 10:31:33;;;;;;;6.95;6.25;;;14.10;99.90;;;;;;4925526;29;20082;-77
2022/09/29 10:34:16;;;;;;;8.13;6.18;;;14.20;99.90;;;;;;4931969;29;20121;-78
2022/09/29 10:36:53;;;;;;;6.28;5.68;;;14.30;99.90;;;;;;4941034;28;20066;-76
2022/09/29 10:39:48;;;;;;;6.70;5.32;;;14.30;99.90;;;;;;4926989;29;20217;-77
2022/09/29 10:42:30;;;;;;;5.95;4.40;;;14.40;99.90;;;;;;4909433;29;20059;-77
2022/09/29 10:45:26;;;;;;;4.65;3.63;;;14.50;99.90;;;;;;4926806;29;20047;-76
2022/09/29 10:48:03;;;;;;;4.80;3.58;;;14.50;99.90;;;;;;4929885;28;20051;-77
2022/09/29 10:50:36;;;;;;;4.80;3.92;;;14.50;99.90;;;;;;4929528;29;20082;-77
2022/09/29 10:53:24;;;;;;;5.80;4.63;;;14.40;99.90;;;;;;4918162;28;20058;-77
2022/09/29 10:55:53;;;;;;;7.20;5.25;;;14.50;99.90;;;;;;4923456;29;20499;-79
2022/09/29 10:58:33;;;;;;;6.55;5.75;;;14.50;99.90;;;;;;4928741;29;20051;-78
2022/09/29 11:01:16;;;;;;;4.13;3.27;;;14.60;99.90;;;;;;4917714;28;20503;-78
2022/09/29 11:04:00;;;;;;;3.13;2.05;;;14.70;99.90;;;;;;4935517;29;20110;-78
2022/09/29 11:06:35;;;;;;;4.28;3.00;;;14.70;99.90;;;;;;4930610;29;20086;-77
2022/09/29 11:09:14;;;;;;;3.42;2.63;;;14.80;99.90;;;;;;4918217;29;20050;-79
2022/09/29 11:11:53;;;;;;;3.97;2.90;;;14.70;99.90;;;;;;4932550;29;20059;-77
2022/09/29 11:14:30;;;;;;;3.38;2.50;;;14.70;99.90;;;;;;4916030;28;20043;-77
2022/09/29 11:17:01;;;;;;;3.60;2.70;;;14.70;99.90;;;;;;4930618;29;20047;-77
2022/09/29 11:19:28;;;;;;;;;;;14.70;99.90;;;;;;4937543;29;20058;-77
2022/09/29 11:22:12;;;;;;;4.05;2.90;;;14.60;99.90;;;;;;4919505;29;19923;-77
2022/09/29 11:25:06;;;;;;;4.93;3.10;;;14.60;99.90;;;;;;4928383;29;20129;-77
2022/09/29 11:27:47;;;;;;;3.95;3.10;;;14.60;99.90;;;;;;4931643;29;20736;-78
2022/09/29 11:30:22;;;;;;;4.70;2.80;;;14.60;99.90;;;;;;4929693;29;20087;-77
2022/09/29 11:33:11;;;;;;;4.30;3.55;;;14.70;99.90;;;;;;4941806;28;20050;-77
2022/09/29 11:35:41;;;;;;;3.30;2.38;;;14.80;99.90;;;;;;4881428;29;20538;-77
2022/09/29 11:38:16;;;;;;;4.80;3.30;;;14.90;99.90;;;;;;4914972;28;20079;-77
2022/09/29 11:40:46;;;;;;;5.95;3.55;;;15.00;99.90;;;;;;4927502;29;20055;-77
2022/09/29 11:43:36;;;;;;;4.53;3.45;;;15.00;99.90;;;;;;4915081;29;20035;-77
2022/09/29 11:46:19;;;;;;;3.92;3.40;;;15.10;99.90;;;;;;4930258;29;20054;-77
2022/09/29 11:49:06;;;;;;;4.45;2.70;;;15.20;99.90;;;;;;4925676;29;20126;-77
2022/09/29 11:51:56;;;;;;;4.55;2.70;;;15.30;99.90;;;;;;4924590;28;20066;-77
2022/09/29 11:55:13;;;;;;;6.32;4.22;;;15.30;99.90;;;;;;4928717;29;20055;-77
2022/09/29 11:57:56;;;;;;;6.80;4.50;;;15.20;99.90;;;;;;4841437;29;20150;-77
2022/09/29 12:00:44;;;;;;;4.05;2.97;;;15.10;99.90;;;;;;4945289;28;20284;-77
2022/09/29 12:03:26;;;;;;;4.82;2.50;;;15.10;99.90;;;;;;4929270;29;20086;-77
2022/09/29 12:06:23;;;;;;;3.85;3.42;;;15.20;99.90;;;;;;4930721;29;20522;-77
2022/09/29 12:09:26;;;;;;;2.97;2.42;;;15.30;99.90;;;;;;4928308;29;20057;-77
2022/09/29 12:12:09;;;;;;;3.05;2.20;;;15.30;99.90;;;;;;4932671;29;20514;-77
2022/09/29 12:14:59;;;;;;;3.25;2.28;;;15.40;99.90;;;;;;4936899;29;20054;-77
2022/09/29 12:17:30;;;;;;;3.17;2.72;;;15.50;99.90;;;;;;4931249;29;20047;-77
2022/09/29 12:20:02;;;;;;;5.35;2.63;;;15.50;99.90;;;;;;4937537;29;20113;-77
2022/09/29 12:22:29;;;;;;;4.88;2.95;;;15.60;99.90;;;;;;4919468;29;20054;-77
2022/09/29 12:24:58;;;;;;;3.30;2.60;;;15.70;99.90;;;;;;4926431;29;20775;-77
2022/09/29 12:27:36;;;;;;;3.28;2.42;;;15.70;99.90;;;;;;4915180;29;20524;-76
2022/09/29 12:30:13;;;;;;;3.95;2.95;;;15.60;99.90;;;;;;4930427;29;20098;-77
2022/09/29 12:32:50;;;;;;;4.05;3.60;;;15.70;99.90;;;;;;4928291;29;20589;-77
2022/09/29 12:35:34;;;;;;;4.30;2.53;;;15.80;99.90;;;;;;4926926;29;20051;-76
2022/09/29 12:38:27;;;;;;;3.47;2.80;;;15.90;99.90;;;;;;4935573;29;20062;-77
2022/09/29 12:41:20;;;;;;;3.65;2.47;;;16.10;99.90;;;;;;4924104;29;20044;-77
2022/09/29 12:44:09;;;;;;;3.38;2.67;;;16.10;99.90;;;;;;4942987;28;20700;-77
2022/09/29 12:46:43;;;;;;;3.20;2.30;;;16.20;99.90;;;;;;4925898;28;20071;-78
2022/09/29 12:49:17;;;;;;;4.90;2.70;;;16.20;99.90;;;;;;4945938;28;20047;-77
2022/09/29 12:51:46;;;;;;;5.32;2.50;;;16.30;99.90;;;;;;4913063;29;20051;-77
2022/09/29 12:54:11;;;;;;;3.40;2.15;;;16.20;99.90;;;;;;4915736;29;20047;-77
2022/09/29 12:57:13;;;;;;;3.30;2.75;;;16.10;99.90;;;;;;4924835;28;20099;-77
2022/09/29 13:00:03;;;;;;;3.38;2.25;;;16.20;99.90;;;;;;4888231;28;20220;-77
2022/09/29 13:02:35;;;;;;;2.33;2.10;;;16.30;99.90;;;;;;4926463;29;20066;-77
2022/09/29 13:05:25;;;;;;;3.13;2.28;;;16.30;99.90;;;;;;4932398;29;20122;-76
2022/09/29 13:07:54;;;;;;;2.75;1.95;;;16.20;99.90;;;;;;4929556;28;20047;-77
2022/09/29 13:10:58;;;;;;;3.63;2.30;;;16.10;99.90;;;;;;4928593;29;20055;-77
2022/09/29 13:13:24;;;;;;;3.17;2.50;;;16.10;99.90;;;;;;4931215;29;20052;-76